Terminal Aerodrome Forecast
Issued by NWS Wilmington, OH

Current Version | Previous Version | Graphics & Text | Print | Product List | Glossary On
Versions: 1 2 3 4 5 6 7 8 9 10 11 12 13 14 15 16 17 18 19 20 21 22 23
719
FTUS41 KILN 092227 AAB
TAFILN
TAF AMD
KILN 092227Z 0922/1018 27012KT 5SM -SHSN BKN015 OVC022
      TEMPO 0922/0924 2SM -SHSN
     FM100000 28012KT P6SM VCSH SCT012 OVC022
     FM100800 28014G20KT 4SM -SHSN BKN012 OVC022
     FM101700 28014G22KT P6SM -SHSN SCT012 OVC022=

USA.gov is the U.S. government's official web portal to all federal, state and local government web resources and services.